sensor_id;sensor_type;location;lat;lon;timestamp;pressure;altitude;pressure_sealevel;temperature;humidity
25638;BME280;13496;51.040;13.680;2023-07-20T00:01:55;99314.22;;;27.14;37.72
25638;BME280;13496;51.040;13.680;2023-07-20T00:06:57;99319.00;;;27.12;37.47
25638;BME280;13496;51.040;13.680;2023-07-20T00:11:58;99311.50;;;27.09;38.33
25638;BME280;13496;51.040;13.680;2023-07-20T00:17:02;99301.91;;;27.08;37.96
25638;BME280;13496;51.040;13.680;2023-07-20T00:22:04;99298.44;;;27.08;37.87
25638;BME280;13496;51.040;13.680;2023-07-20T00:27:06;99302.97;;;27.07;38.32
25638;BME280;13496;51.040;13.680;2023-07-20T00:32:08;99318.38;;;27.05;37.98
25638;BME280;13496;51.040;13.680;2023-07-20T00:37:10;99301.59;;;27.05;37.60
25638;BME280;13496;51.040;13.680;2023-07-20T00:42:13;99312.25;;;27.05;37.89
25638;BME280;13496;51.040;13.680;2023-07-20T00:47:15;99312.50;;;27.03;37.71
25638;BME280;13496;51.040;13.680;2023-07-20T00:52:17;99305.56;;;27.02;38.10
25638;BME280;13496;51.040;13.680;2023-07-20T00:57:20;99302.38;;;27.00;37.96
25638;BME280;13496;51.040;13.680;2023-07-20T01:02:21;99313.84;;;27.00;38.12
25638;BME280;13496;51.040;13.680;2023-07-20T01:07:27;99308.50;;;27.00;38.18
25638;BME280;13496;51.040;13.680;2023-07-20T01:12:43;99305.84;;;27.00;37.69
25638;BME280;13496;51.040;13.680;2023-07-20T01:17:45;99302.09;;;26.96;37.88
25638;BME280;13496;51.040;13.680;2023-07-20T01:33:41;99321.22;;;26.93;38.24
25638;BME280;13496;51.040;13.680;2023-07-20T01:38:44;99318.78;;;26.92;38.25
25638;BME280;13496;51.040;13.680;2023-07-20T01:43:46;99319.63;;;26.92;38.40
25638;BME280;13496;51.040;13.680;2023-07-20T01:48:48;99317.47;;;26.89;38.59
25638;BME280;13496;51.040;13.680;2023-07-20T01:53:52;99315.84;;;26.88;38.05
25638;BME280;13496;51.040;13.680;2023-07-20T01:58:53;99318.50;;;26.88;38.25
25638;BME280;13496;51.040;13.680;2023-07-20T02:03:55;99316.91;;;26.87;38.49
25638;BME280;13496;51.040;13.680;2023-07-20T02:08:57;99315.31;;;26.86;38.02
25638;BME280;13496;51.040;13.680;2023-07-20T02:13:59;99307.31;;;26.86;38.24
25638;BME280;13496;51.040;13.680;2023-07-20T02:19:01;99319.03;;;26.85;38.35
25638;BME280;13496;51.040;13.680;2023-07-20T02:24:03;99323.56;;;26.85;37.77
25638;BME280;13496;51.040;13.680;2023-07-20T02:29:04;99318.47;;;26.83;38.29
25638;BME280;13496;51.040;13.680;2023-07-20T02:34:06;99324.84;;;26.82;38.43
25638;BME280;13496;51.040;13.680;2023-07-20T02:39:08;99318.97;;;26.80;38.22
25638;BME280;13496;51.040;13.680;2023-07-20T02:44:10;99326.72;;;26.82;38.41
25638;BME280;13496;51.040;13.680;2023-07-20T02:49:12;99322.19;;;26.82;37.87
25638;BME280;13496;51.040;13.680;2023-07-20T02:54:14;99331.47;;;26.79;38.08
25638;BME280;13496;51.040;13.680;2023-07-20T02:59:16;99338.38;;;26.75;38.11
25638;BME280;13496;51.040;13.680;2023-07-20T03:04:18;99343.44;;;26.77;38.00
25638;BME280;13496;51.040;13.680;2023-07-20T03:09:20;99346.09;;;26.77;38.04
25638;BME280;13496;51.040;13.680;2023-07-20T03:14:21;99349.81;;;26.76;38.16
25638;BME280;13496;51.040;13.680;2023-07-20T03:19:25;99350.88;;;26.75;38.37
25638;BME280;13496;51.040;13.680;2023-07-20T03:24:27;99359.94;;;26.74;38.36
25638;BME280;13496;51.040;13.680;2023-07-20T03:29:31;99351.38;;;26.72;38.38
25638;BME280;13496;51.040;13.680;2023-07-20T03:34:33;99361.22;;;26.71;38.27
25638;BME280;13496;51.040;13.680;2023-07-20T03:39:35;99364.94;;;26.70;38.15
25638;BME280;13496;51.040;13.680;2023-07-20T03:44:37;99363.31;;;26.69;38.27
25638;BME280;13496;51.040;13.680;2023-07-20T03:49:38;99359.06;;;26.68;38.49
25638;BME280;13496;51.040;13.680;2023-07-20T03:54:40;99361.97;;;26.67;38.37
25638;BME280;13496;51.040;13.680;2023-07-20T03:59:45;99361.97;;;26.67;38.65
25638;BME280;13496;51.040;13.680;2023-07-20T04:04:47;99369.41;;;26.65;38.49
25638;BME280;13496;51.040;13.680;2023-07-20T04:09:49;99364.66;;;26.67;38.71
25638;BME280;13496;51.040;13.680;2023-07-20T04:14:51;99363.00;;;26.66;38.86
25638;BME280;13496;51.040;13.680;2023-07-20T04:19:53;99366.75;;;26.65;38.32
25638;BME280;13496;51.040;13.680;2023-07-20T04:24:54;99363.00;;;26.66;38.42
25638;BME280;13496;51.040;13.680;2023-07-20T04:29:58;99371.25;;;26.64;38.80
25638;BME280;13496;51.040;13.680;2023-07-20T04:35:00;99374.72;;;26.65;38.74
25638;BME280;13496;51.040;13.680;2023-07-20T04:40:02;99369.66;;;26.63;38.91
25638;BME280;13496;51.040;13.680;2023-07-20T04:45:05;99364.88;;;26.65;38.92
25638;BME280;13496;51.040;13.680;2023-07-20T04:50:08;99372.88;;;26.65;38.57
25638;BME280;13496;51.040;13.680;2023-07-20T04:55:10;99376.31;;;26.66;38.30
25638;BME280;13496;51.040;13.680;2023-07-20T05:00:13;99380.63;;;26.67;38.83
25638;BME280;13496;51.040;13.680;2023-07-20T05:05:16;99385.94;;;26.67;38.44
25638;BME280;13496;51.040;13.680;2023-07-20T05:10:18;99380.63;;;26.67;38.46
25638;BME280;13496;51.040;13.680;2023-07-20T05:15:19;99387.53;;;26.68;38.31
25638;BME280;13496;51.040;13.680;2023-07-20T05:20:21;99383.00;;;26.68;38.82
25638;BME280;13496;51.040;13.680;2023-07-20T05:25:23;99385.44;;;26.70;38.34
25638;BME280;13496;51.040;13.680;2023-07-20T05:30:25;99387.53;;;26.68;39.16
25638;BME280;13496;51.040;13.680;2023-07-20T05:35:26;99379.81;;;26.66;39.03
25638;BME280;13496;51.040;13.680;2023-07-20T05:40:28;99395.53;;;26.68;39.27
25638;BME280;13496;51.040;13.680;2023-07-20T05:45:30;99387.81;;;26.66;38.90
25638;BME280;13496;51.040;13.680;2023-07-20T05:50:31;99398.19;;;26.68;39.27
25638;BME280;13496;51.040;13.680;2023-07-20T05:55:33;99401.91;;;26.67;39.45
25638;BME280;13496;51.040;13.680;2023-07-20T06:00:35;99405.06;;;26.64;39.46
25638;BME280;13496;51.040;13.680;2023-07-20T06:05:37;99410.13;;;26.65;39.57
25638;BME280;13496;51.040;13.680;2023-07-20T06:10:38;99400.53;;;26.64;39.80
25638;BME280;13496;51.040;13.680;2023-07-20T06:15:40;99407.72;;;26.64;39.44
25638;BME280;13496;51.040;13.680;2023-07-20T06:20:42;99434.34;;;26.64;39.09
25638;BME280;13496;51.040;13.680;2023-07-20T06:25:49;99431.41;;;26.65;39.07
25638;BME280;13496;51.040;13.680;2023-07-20T06:30:51;99422.63;;;26.65;38.58
25638;BME280;13496;51.040;13.680;2023-07-20T06:35:53;99421.25;;;26.62;39.33
25638;BME280;13496;51.040;13.680;2023-07-20T06:40:55;99435.41;;;26.63;39.15
25638;BME280;13496;51.040;13.680;2023-07-20T06:45:57;99439.66;;;26.64;39.11
25638;BME280;13496;51.040;13.680;2023-07-20T06:50:59;99438.59;;;26.65;38.96
25638;BME280;13496;51.040;13.680;2023-07-20T06:56:00;99442.06;;;26.65;39.07
25638;BME280;13496;51.040;13.680;2023-07-20T07:01:06;99453.50;;;26.66;39.46
25638;BME280;13496;51.040;13.680;2023-07-20T07:06:08;99450.84;;;26.66;39.38
25638;BME280;13496;51.040;13.680;2023-07-20T07:11:09;99446.34;;;26.66;39.40
25638;BME280;13496;51.040;13.680;2023-07-20T07:16:11;99449.00;;;26.66;38.83
25638;BME280;13496;51.040;13.680;2023-07-20T07:21:13;99454.06;;;26.68;39.06
25638;BME280;13496;51.040;13.680;2023-07-20T07:26:15;99454.06;;;26.68;39.16
25638;BME280;13496;51.040;13.680;2023-07-20T07:31:16;99454.06;;;26.68;39.41
25638;BME280;13496;51.040;13.680;2023-07-20T07:36:18;99449.31;;;26.70;39.01
25638;BME280;13496;51.040;13.680;2023-07-20T07:41:20;99451.16;;;26.69;39.17
25638;BME280;13496;51.040;13.680;2023-07-20T07:46:22;99451.72;;;26.71;39.34
25638;BME280;13496;51.040;13.680;2023-07-20T07:51:24;99451.47;;;26.73;39.13
25638;BME280;13496;51.040;13.680;2023-07-20T07:56:26;99456.78;;;26.73;38.85
25638;BME280;13496;51.040;13.680;2023-07-20T08:01:27;99456.56;;;26.74;39.55
25638;BME280;13496;51.040;13.680;2023-07-20T08:06:29;99453.88;;;26.74;39.54
25638;BME280;13496;51.040;13.680;2023-07-20T08:11:31;99454.44;;;26.76;39.45
25638;BME280;13496;51.040;13.680;2023-07-20T08:16:35;99451.53;;;26.78;38.97
25638;BME280;13496;51.040;13.680;2023-07-20T08:21:36;99455.53;;;26.81;38.77
25638;BME280;13496;51.040;13.680;2023-07-20T08:26:38;99460.63;;;26.82;38.98
25638;BME280;13496;51.040;13.680;2023-07-20T08:31:40;99458.75;;;26.83;38.43
25638;BME280;13496;51.040;13.680;2023-07-20T08:36:42;99459.34;;;26.85;38.69
25638;BME280;13496;51.040;13.680;2023-07-20T08:41:44;99456.91;;;26.83;38.46
25638;BME280;13496;51.040;13.680;2023-07-20T08:46:47;99456.69;;;26.85;38.47
25638;BME280;13496;51.040;13.680;2023-07-20T08:51:51;99462.78;;;26.85;38.09
25638;BME280;13496;51.040;13.680;2023-07-20T08:56:55;99462.53;;;26.87;38.44
25638;BME280;13496;51.040;13.680;2023-07-20T09:01:59;99466.78;;;26.88;38.16
25638;BME280;13496;51.040;13.680;2023-07-20T09:07:01;99467.38;;;26.90;38.02
25638;BME280;13496;51.040;13.680;2023-07-20T09:12:03;99462.56;;;26.92;38.17
25638;BME280;13496;51.040;13.680;2023-07-20T09:17:05;99463.41;;;26.92;38.13
25638;BME280;13496;51.040;13.680;2023-07-20T09:22:07;99453.06;;;26.96;38.04
25638;BME280;13496;51.040;13.680;2023-07-20T09:27:08;99457.56;;;26.95;38.27
25638;BME280;13496;51.040;13.680;2023-07-20T09:32:11;99456.25;;;26.98;38.12
25638;BME280;13496;51.040;13.680;2023-07-20T09:37:13;99453.34;;;26.99;38.45
25638;BME280;13496;51.040;13.680;2023-07-20T09:42:15;99456.56;;;27.01;38.38
25638;BME280;13496;51.040;13.680;2023-07-20T09:47:23;99463.00;;;27.06;38.01
25638;BME280;13496;51.040;13.680;2023-07-20T09:52:25;99464.59;;;27.07;38.25
25638;BME280;13496;51.040;13.680;2023-07-20T09:57:27;99475.56;;;27.10;38.15
25638;BME280;13496;51.040;13.680;2023-07-20T10:02:33;99476.06;;;27.07;37.91
25638;BME280;13496;51.040;13.680;2023-07-20T10:07:35;99478.00;;;27.12;38.19
25638;BME280;13496;51.040;13.680;2023-07-20T10:12:39;99474.59;;;27.16;37.96
25638;BME280;13496;51.040;13.680;2023-07-20T10:23:33;99472.22;;;27.20;38.38
25638;BME280;13496;51.040;13.680;2023-07-20T10:28:36;99470.63;;;27.19;39.12
25638;BME280;13496;51.040;13.680;2023-07-20T10:33:38;99459.72;;;27.20;38.66
25638;BME280;13496;51.040;13.680;2023-07-20T10:38:52;99468.50;;;27.21;38.80
25638;BME280;13496;51.040;13.680;2023-07-20T10:44:02;99471.16;;;27.21;39.34
25638;BME280;13496;51.040;13.680;2023-07-20T10:49:05;99461.56;;;27.20;39.29
25638;BME280;13496;51.040;13.680;2023-07-20T10:54:09;99449.06;;;27.20;39.30
25638;BME280;13496;51.040;13.680;2023-07-20T10:59:40;99464.22;;;27.20;39.18
25638;BME280;13496;51.040;13.680;2023-07-20T11:04:43;99478.84;;;27.17;39.38
25638;BME280;13496;51.040;13.680;2023-07-20T11:09:45;99466.59;;;27.16;39.50
25638;BME280;13496;51.040;13.680;2023-07-20T11:14:57;99458.34;;;27.18;39.44
25638;BME280;13496;51.040;13.680;2023-07-20T11:20:00;99462.63;;;27.19;39.59
25638;BME280;13496;51.040;13.680;2023-07-20T11:25:02;99458.91;;;27.20;39.22
25638;BME280;13496;51.040;13.680;2023-07-20T11:30:15;99457.31;;;27.19;39.51
25638;BME280;13496;51.040;13.680;2023-07-20T11:35:17;99457.84;;;27.21;39.50
25638;BME280;13496;51.040;13.680;2023-07-20T11:40:19;99449.84;;;27.21;39.53
25638;BME280;13496;51.040;13.680;2023-07-20T11:45:20;99458.41;;;27.23;39.89
25638;BME280;13496;51.040;13.680;2023-07-20T11:50:22;99453.88;;;27.23;39.84
25638;BME280;13496;51.040;13.680;2023-07-20T11:55:24;99451.78;;;27.25;39.65
25638;BME280;13496;51.040;13.680;2023-07-20T12:00:26;99452.03;;;27.29;39.05
25638;BME280;13496;51.040;13.680;2023-07-20T12:05:27;99457.38;;;27.29;39.21
25638;BME280;13496;51.040;13.680;2023-07-20T12:10:29;99458.72;;;27.26;39.53
25638;BME280;13496;51.040;13.680;2023-07-20T12:15:31;99457.91;;;27.26;39.38
25638;BME280;13496;51.040;13.680;2023-07-20T12:20:35;99460.56;;;27.26;39.21
25638;BME280;13496;51.040;13.680;2023-07-20T12:25:39;99468.56;;;27.26;39.54
25638;BME280;13496;51.040;13.680;2023-07-20T12:30:42;99472.03;;;27.26;39.66
25638;BME280;13496;51.040;13.680;2023-07-20T12:35:44;99495.81;;;27.33;39.21
25638;BME280;13496;51.040;13.680;2023-07-20T12:40:45;99489.66;;;27.33;39.05
25638;BME280;13496;51.040;13.680;2023-07-20T12:45:47;99503.72;;;27.28;39.37
25638;BME280;13496;51.040;13.680;2023-07-20T12:50:49;99515.19;;;27.29;39.80
25638;BME280;13496;51.040;13.680;2023-07-20T12:55:50;99510.91;;;27.27;39.48
25638;BME280;13496;51.040;13.680;2023-07-20T13:00:53;99512.53;;;27.29;39.71
25638;BME280;13496;51.040;13.680;2023-07-20T13:05:54;99500.00;;;27.29;39.78
25638;BME280;13496;51.040;13.680;2023-07-20T13:10:56;99503.22;;;27.31;39.81
25638;BME280;13496;51.040;13.680;2023-07-20T13:15:58;99484.59;;;27.31;40.02
25638;BME280;13496;51.040;13.680;2023-07-20T13:21:00;99475.00;;;27.30;40.06
25638;BME280;13496;51.040;13.680;2023-07-20T13:26:05;99469.66;;;27.30;39.75
25638;BME280;13496;51.040;13.680;2023-07-20T13:31:07;99465.38;;;27.29;40.05
25638;BME280;13496;51.040;13.680;2023-07-20T13:36:11;99463.53;;;27.30;39.84
25638;BME280;13496;51.040;13.680;2023-07-20T13:41:13;99462.47;;;27.31;40.10
25638;BME280;13496;51.040;13.680;2023-07-20T13:46:15;99466.50;;;27.33;39.98
25638;BME280;13496;51.040;13.680;2023-07-20T13:51:16;99461.69;;;27.35;40.06
25638;BME280;13496;51.040;13.680;2023-07-20T13:56:18;99464.84;;;27.27;39.80
25638;BME280;13496;51.040;13.680;2023-07-20T14:01:20;99472.56;;;27.29;39.96
25638;BME280;13496;51.040;13.680;2023-07-20T14:06:24;99472.94;;;27.37;39.67
25638;BME280;13496;51.040;13.680;2023-07-20T14:11:26;99476.63;;;27.36;39.56
25638;BME280;13496;51.040;13.680;2023-07-20T14:16:28;99472.13;;;27.37;39.27
25638;BME280;13496;51.040;13.680;2023-07-20T14:21:30;99479.81;;;27.33;39.99
25638;BME280;13496;51.040;13.680;2023-07-20T14:26:32;99481.66;;;27.33;39.35
25638;BME280;13496;51.040;13.680;2023-07-20T14:31:34;99484.63;;;27.36;38.63
25638;BME280;13496;51.040;13.680;2023-07-20T14:36:36;99486.78;;;27.39;38.36
25638;BME280;13496;51.040;13.680;2023-07-20T14:41:37;99495.06;;;27.43;38.84
25638;BME280;13496;51.040;13.680;2023-07-20T14:46:39;99505.22;;;27.46;38.57
25638;BME280;13496;51.040;13.680;2023-07-20T14:51:41;99495.13;;;27.48;38.60
25638;BME280;13496;51.040;13.680;2023-07-20T14:56:51;99487.94;;;27.48;38.49
25638;BME280;13496;51.040;13.680;2023-07-20T15:01:54;99479.97;;;27.54;38.51
25638;BME280;13496;51.040;13.680;2023-07-20T15:06:55;99469.09;;;27.55;38.08
25638;BME280;13496;51.040;13.680;2023-07-20T15:11:58;99464.56;;;27.56;38.56
25638;BME280;13496;51.040;13.680;2023-07-20T15:16:59;99462.41;;;27.58;38.51
25638;BME280;13496;51.040;13.680;2023-07-20T15:22:02;99461.34;;;27.59;38.27
25638;BME280;13496;51.040;13.680;2023-07-20T15:27:05;99456.84;;;27.59;38.27
25638;BME280;13496;51.040;13.680;2023-07-20T15:32:07;99455.22;;;27.58;37.95
25638;BME280;13496;51.040;13.680;2023-07-20T15:37:10;99452.63;;;27.63;38.17
25638;BME280;13496;51.040;13.680;2023-07-20T15:42:12;99455.50;;;27.62;38.29
25638;BME280;13496;51.040;13.680;2023-07-20T15:47:14;99455.00;;;27.65;38.31
25638;BME280;13496;51.040;13.680;2023-07-20T15:52:16;99447.81;;;27.65;38.19
25638;BME280;13496;51.040;13.680;2023-07-20T15:57:18;99450.25;;;27.67;37.73
25638;BME280;13496;51.040;13.680;2023-07-20T16:02:20;99442.25;;;27.67;38.00
25638;BME280;13496;51.040;13.680;2023-07-20T16:07:22;99446.25;;;27.69;38.05
25638;BME280;13496;51.040;13.680;2023-07-20T16:12:24;99463.13;;;27.75;37.74
25638;BME280;13496;51.040;13.680;2023-07-20T16:17:29;99457.78;;;27.75;38.16
25638;BME280;13496;51.040;13.680;2023-07-20T16:22:31;99453.50;;;27.74;37.92
25638;BME280;13496;51.040;13.680;2023-07-20T16:27:32;99457.78;;;27.75;37.90
25638;BME280;13496;51.040;13.680;2023-07-20T16:32:34;99453.00;;;27.77;37.52
25638;BME280;13496;51.040;13.680;2023-07-20T16:37:36;99452.19;;;27.77;38.05
25638;BME280;13496;51.040;13.680;2023-07-20T16:42:38;99442.31;;;27.77;37.51
25638;BME280;13496;51.040;13.680;2023-07-20T16:47:40;99444.75;;;27.79;37.74
25638;BME280;13496;51.040;13.680;2023-07-20T16:52:42;99440.50;;;27.83;37.73
25638;BME280;13496;51.040;13.680;2023-07-20T16:57:43;99440.25;;;27.84;37.54
25638;BME280;13496;51.040;13.680;2023-07-20T17:02:45;99442.91;;;27.84;37.47
25638;BME280;13496;51.040;13.680;2023-07-20T17:07:47;99436.53;;;27.85;37.54
25638;BME280;13496;51.040;13.680;2023-07-20T17:12:49;99440.81;;;27.86;37.95
25638;BME280;13496;51.040;13.680;2023-07-20T17:17:50;99439.19;;;27.85;37.87
25638;BME280;13496;51.040;13.680;2023-07-20T17:22:53;99434.91;;;27.84;37.84
25638;BME280;13496;51.040;13.680;2023-07-20T17:27:55;99435.72;;;27.85;37.69
25638;BME280;13496;51.040;13.680;2023-07-20T17:32:56;99431.44;;;27.84;37.31
25638;BME280;13496;51.040;13.680;2023-07-20T17:37:58;99433.31;;;27.88;37.40
25638;BME280;13496;51.040;13.680;2023-07-20T17:43:00;99426.91;;;27.84;37.14
25638;BME280;13496;51.040;13.680;2023-07-20T17:48:02;99428.53;;;27.85;37.75
25638;BME280;13496;51.040;13.680;2023-07-20T17:53:03;99426.09;;;27.84;37.55
25638;BME280;13496;51.040;13.680;2023-07-20T17:58:05;99425.31;;;27.83;37.89
25638;BME280;13496;51.040;13.680;2023-07-20T18:03:07;99419.97;;;27.83;37.96
25638;BME280;13496;51.040;13.680;2023-07-20T18:08:08;99423.13;;;27.75;37.99
25638;BME280;13496;51.040;13.680;2023-07-20T18:13:11;99407.63;;;27.72;37.42
25638;BME280;13496;51.040;13.680;2023-07-20T18:18:13;99410.50;;;27.65;37.65
25638;BME280;13496;51.040;13.680;2023-07-20T18:23:14;99418.19;;;27.62;37.25
25638;BME280;13496;51.040;13.680;2023-07-20T18:28:16;99408.09;;;27.64;37.56
25638;BME280;13496;51.040;13.680;2023-07-20T18:33:18;99407.84;;;27.65;37.43
25638;BME280;13496;51.040;13.680;2023-07-20T18:38:19;99408.34;;;27.62;37.19
25638;BME280;13496;51.040;13.680;2023-07-20T18:43:21;99414.50;;;27.63;37.42
25638;BME280;13496;51.040;13.680;2023-07-20T18:48:23;99410.19;;;27.57;37.49
25638;BME280;13496;51.040;13.680;2023-07-20T18:53:24;99415.53;;;27.62;37.75
25638;BME280;13496;51.040;13.680;2023-07-20T18:58:26;99420.63;;;27.63;37.58
25638;BME280;13496;51.040;13.680;2023-07-20T19:03:28;99419.28;;;27.61;37.43
25638;BME280;13496;51.040;13.680;2023-07-20T19:08:30;99423.97;;;27.48;37.77
25638;BME280;13496;51.040;13.680;2023-07-20T19:13:32;99428.84;;;27.57;38.32
25638;BME280;13496;51.040;13.680;2023-07-20T19:18:34;99432.56;;;27.56;38.00
25638;BME280;13496;51.040;13.680;2023-07-20T19:23:39;99441.59;;;27.55;38.09
25638;BME280;13496;51.040;13.680;2023-07-20T19:28:41;99452.78;;;27.52;38.00
25638;BME280;13496;51.040;13.680;2023-07-20T19:33:43;99454.09;;;27.49;37.88
25638;BME280;13496;51.040;13.680;2023-07-20T19:38:45;99461.28;;;27.48;37.52
25638;BME280;13496;51.040;13.680;2023-07-20T19:43:47;99468.72;;;27.46;37.60
25638;BME280;13496;51.040;13.680;2023-07-20T19:48:49;99470.59;;;27.46;37.57
25638;BME280;13496;51.040;13.680;2023-07-20T19:53:50;99463.91;;;27.43;37.67
25638;BME280;13496;51.040;13.680;2023-07-20T19:58:52;99466.81;;;27.42;37.89
25638;BME280;13496;51.040;13.680;2023-07-20T20:03:54;99463.56;;;27.35;37.82
25638;BME280;13496;51.040;13.680;2023-07-20T20:08:57;99466.50;;;27.33;38.04
25638;BME280;13496;51.040;13.680;2023-07-20T20:13:59;99471.75;;;27.28;37.97
25638;BME280;13496;51.040;13.680;2023-07-20T20:19:02;99473.31;;;27.24;37.62
25638;BME280;13496;51.040;13.680;2023-07-20T20:24:05;99478.63;;;27.19;37.82
25638;BME280;13496;51.040;13.680;2023-07-20T20:29:06;99478.69;;;27.29;37.85
25638;BME280;13496;51.040;13.680;2023-07-20T20:34:08;99480.31;;;27.30;37.63
25638;BME280;13496;51.040;13.680;2023-07-20T20:39:10;99484.25;;;27.22;37.92
25638;BME280;13496;51.040;13.680;2023-07-20T20:44:13;99486.47;;;27.09;37.98
25638;BME280;13496;51.040;13.680;2023-07-20T20:49:19;99469.84;;;27.23;37.42
25638;BME280;13496;51.040;13.680;2023-07-20T20:54:20;99481.31;;;27.24;37.73
25638;BME280;13496;51.040;13.680;2023-07-20T20:59:22;99476.50;;;27.21;37.71
25638;BME280;13496;51.040;13.680;2023-07-20T21:04:24;99482.56;;;27.16;37.46
25638;BME280;13496;51.040;13.680;2023-07-20T21:09:26;99477.50;;;27.15;37.73
25638;BME280;13496;51.040;13.680;2023-07-20T21:14:28;99483.88;;;27.14;37.54
25638;BME280;13496;51.040;13.680;2023-07-20T21:19:29;99480.06;;;27.10;37.30
25638;BME280;13496;51.040;13.680;2023-07-20T21:24:31;99481.72;;;27.11;37.75
25638;BME280;13496;51.040;13.680;2023-07-20T21:29:34;99493.66;;;27.08;37.51
25638;BME280;13496;51.040;13.680;2023-07-20T21:34:38;99499.47;;;27.05;37.57
25638;BME280;13496;51.040;13.680;2023-07-20T21:39:39;99491.50;;;27.05;37.62
25638;BME280;13496;51.040;13.680;2023-07-20T21:44:41;99495.44;;;27.02;37.82
25638;BME280;13496;51.040;13.680;2023-07-20T21:49:43;99495.16;;;26.99;37.95
25638;BME280;13496;51.040;13.680;2023-07-20T21:54:44;99487.41;;;26.97;37.89
25638;BME280;13496;51.040;13.680;2023-07-20T21:59:47;99488.47;;;26.96;37.71
25638;BME280;13496;51.040;13.680;2023-07-20T22:04:49;99486.50;;;26.87;38.16
25638;BME280;13496;51.040;13.680;2023-07-20T22:09:50;99489.66;;;26.84;38.43
25638;BME280;13496;51.040;13.680;2023-07-20T22:14:52;99480.69;;;26.90;38.02
25638;BME280;13496;51.040;13.680;2023-07-20T22:19:54;99479.75;;;26.79;38.08
25638;BME280;13496;51.040;13.680;2023-07-20T22:24:56;99482.91;;;26.76;38.29
25638;BME280;13496;51.040;13.680;2023-07-20T22:29:58;99473.31;;;26.75;38.31
25638;BME280;13496;51.040;13.680;2023-07-20T22:34:59;99472.84;;;26.78;38.04
25638;BME280;13496;51.040;13.680;2023-07-20T22:40:01;99483.09;;;26.69;38.20
25638;BME280;13496;51.040;13.680;2023-07-20T22:45:04;99480.13;;;26.66;38.29
25638;BME280;13496;51.040;13.680;2023-07-20T22:50:10;99464.69;;;26.63;38.24
25638;BME280;13496;51.040;13.680;2023-07-20T22:55:12;99475.81;;;26.60;38.18
25638;BME280;13496;51.040;13.680;2023-07-20T23:00:14;99469.91;;;26.58;37.94
25638;BME280;13496;51.040;13.680;2023-07-20T23:05:16;99483.47;;;26.56;38.06
25638;BME280;13496;51.040;13.680;2023-07-20T23:10:18;99469.06;;;26.52;38.19
25638;BME280;13496;51.040;13.680;2023-07-20T23:15:20;99470.34;;;26.49;38.41
25638;BME280;13496;51.040;13.680;2023-07-20T23:20:22;99472.44;;;26.47;38.21
25638;BME280;13496;51.040;13.680;2023-07-20T23:25:24;99465.53;;;26.46;38.13
25638;BME280;13496;51.040;13.680;2023-07-20T23:30:26;99463.91;;;26.45;38.50
25638;BME280;13496;51.040;13.680;2023-07-20T23:35:29;99464.38;;;26.42;38.31
25638;BME280;13496;51.040;13.680;2023-07-20T23:40:30;99460.91;;;26.42;38.55
25638;BME280;13496;51.040;13.680;2023-07-20T23:45:32;99459.53;;;26.39;38.65
25638;BME280;13496;51.040;13.680;2023-07-20T23:50:37;99459.81;;;26.38;38.57
25638;BME280;13496;51.040;13.680;2023-07-20T23:55:39;99458.44;;;26.35;38.39
